Time;durP1;ratioP1;P1;durP2;ratioP2;P2;SDS_P1;SDS_P2;PMS_P1;PMS_P2;Temp;Humidity;BMP_temperature;BMP_pressure;BME280_temperature;BME280_humidity;BME280_pressure;Samples;Min_cycle;Max_cycle;Signal;HPM_P1;HPM_P2
2022/03/05 00:00:51;;;;;;;6.43;4.53;;;10.50;53.20;;;;;;5056768;28;20183;-73
2022/03/05 00:03:17;;;;;;;6.95;4.97;;;10.50;53.20;;;;;;5072823;28;20106;-72
2022/03/05 00:05:43;;;;;;;5.47;4.45;;;10.40;53.60;;;;;;5075840;28;20431;-73
2022/03/05 00:08:09;;;;;;;6.55;4.47;;;10.50;53.60;;;;;;5075879;28;20033;-73
2022/03/05 00:10:36;;;;;;;6.60;4.82;;;10.40;53.30;;;;;;5076105;28;20056;-73
2022/03/05 00:13:02;;;;;;;5.95;4.40;;;10.40;53.30;;;;;;5075613;28;20135;-73
2022/03/05 00:15:28;;;;;;;6.93;5.25;;;10.40;53.40;;;;;;5075527;28;20094;-73
2022/03/05 00:17:54;;;;;;;6.90;4.57;;;10.40;53.50;;;;;;5076116;28;20044;-73
2022/03/05 00:20:22;;;;;;;6.55;4.90;;;10.40;53.50;;;;;;5076519;28;20063;-73
2022/03/05 00:22:49;;;;;;;6.97;5.40;;;10.40;53.30;;;;;;5059030;28;20063;-73
2022/03/05 00:25:15;;;;;;;9.70;5.20;;;10.30;53.00;;;;;;5075909;28;20082;-74
2022/03/05 00:27:42;;;;;;;8.88;5.60;;;10.30;53.40;;;;;;5064055;28;20049;-74
2022/03/05 00:30:08;;;;;;;7.90;5.07;;;10.30;53.40;;;;;;5055949;28;20049;-73
2022/03/05 00:32:34;;;;;;;10.95;5.97;;;10.30;53.40;;;;;;5055730;28;20089;-73
2022/03/05 00:35:00;;;;;;;8.85;5.22;;;10.30;53.60;;;;;;5055420;28;20121;-73
2022/03/05 00:37:26;;;;;;;8.93;5.30;;;10.30;53.60;;;;;;5055633;28;20064;-73
2022/03/05 00:39:51;;;;;;;9.43;5.28;;;10.30;53.20;;;;;;5055660;28;20060;-73
2022/03/05 00:42:17;;;;;;;8.73;5.75;;;10.30;53.30;;;;;;5055945;28;20512;-73
2022/03/05 00:44:43;;;;;;;9.52;5.90;;;10.40;53.20;;;;;;5055477;28;20037;-73
2022/03/05 00:47:08;;;;;;;10.68;5.72;;;10.30;53.10;;;;;;5055972;28;20048;-74
2022/03/05 00:49:34;;;;;;;12.88;8.05;;;10.30;53.30;;;;;;5055449;28;20451;-73
2022/03/05 00:52:00;;;;;;;18.30;9.30;;;10.30;53.00;;;;;;5055429;28;20411;-74
2022/03/05 00:54:26;;;;;;;16.17;9.20;;;10.30;53.10;;;;;;5055016;28;20041;-73
2022/03/05 00:56:52;;;;;;;21.95;10.68;;;10.20;53.20;;;;;;5059104;28;20371;-73
2022/03/05 00:59:17;;;;;;;17.73;10.15;;;10.20;53.20;;;;;;5075438;28;20141;-72
2022/03/05 01:01:43;;;;;;;16.15;9.45;;;10.20;53.00;;;;;;5074702;28;20862;-73
2022/03/05 01:04:09;;;;;;;13.00;8.68;;;10.10;53.20;;;;;;5075436;28;20360;-72
2022/03/05 01:06:35;;;;;;;13.85;9.07;;;10.10;53.30;;;;;;5075684;28;20440;-72
2022/03/05 01:09:02;;;;;;;13.23;7.50;;;10.10;53.20;;;;;;5075392;28;20048;-73
2022/03/05 01:11:28;;;;;;;11.20;7.05;;;10.10;53.40;;;;;;5075501;28;20349;-73
2022/03/05 01:13:54;;;;;;;15.50;7.63;;;10.10;53.60;;;;;;5075058;28;20036;-73
2022/03/05 01:16:20;;;;;;;10.85;7.20;;;10.10;53.60;;;;;;5075534;28;20398;-73
2022/03/05 01:18:46;;;;;;;11.30;7.15;;;10.10;53.40;;;;;;5074913;28;20128;-73
2022/03/05 01:21:12;;;;;;;10.82;7.05;;;10.00;53.40;;;;;;5057435;28;20040;-72
2022/03/05 01:23:38;;;;;;;9.52;6.55;;;10.10;53.30;;;;;;5074935;28;20041;-73
2022/03/05 01:26:04;;;;;;;10.88;6.40;;;10.00;53.80;;;;;;5074331;28;20044;-72
2022/03/05 01:28:30;;;;;;;9.18;6.22;;;10.00;53.60;;;;;;5055087;28;20091;-73
2022/03/05 01:30:55;;;;;;;9.93;7.18;;;10.00;53.70;;;;;;5055036;28;20041;-74
2022/03/05 01:33:22;;;;;;;9.80;6.55;;;10.00;53.50;;;;;;5054458;28;20483;-72
2022/03/05 01:35:48;;;;;;;9.88;6.25;;;10.00;53.40;;;;;;5054733;28;20044;-73
2022/03/05 01:38:15;;;;;;;9.43;6.57;;;9.90;53.70;;;;;;5054323;28;20135;-73
2022/03/05 01:40:42;;;;;;;9.55;6.63;;;9.90;53.50;;;;;;5055237;28;20127;-72
2022/03/05 01:43:08;;;;;;;8.15;6.13;;;9.80;53.30;;;;;;5054947;28;20075;-73
2022/03/05 01:45:34;;;;;;;8.60;5.82;;;9.90;53.60;;;;;;5055062;28;20049;-73
2022/03/05 01:48:00;;;;;;;10.90;6.78;;;9.80;53.40;;;;;;5055143;28;20056;-72
2022/03/05 01:50:26;;;;;;;9.48;6.57;;;9.80;53.50;;;;;;5055143;28;20048;-74
2022/03/05 01:52:53;;;;;;;8.48;6.05;;;9.80;53.50;;;;;;5054649;28;20467;-73
2022/03/05 01:55:19;;;;;;;11.00;6.55;;;9.90;53.30;;;;;;5055148;28;20052;-72
2022/03/05 01:57:45;;;;;;;7.43;5.95;;;9.80;53.10;;;;;;5068233;28;20127;-73
2022/03/05 02:00:13;;;;;;;8.55;6.35;;;9.70;53.40;;;;;;5075363;28;20438;-73
2022/03/05 02:02:39;;;;;;;8.75;6.72;;;9.80;53.70;;;;;;5065932;28;20115;-73
2022/03/05 02:05:05;;;;;;;7.75;5.78;;;9.70;53.60;;;;;;5054504;28;20056;-72
2022/03/05 02:07:32;;;;;;;7.82;5.65;;;9.70;53.60;;;;;;5054747;28;20037;-72
2022/03/05 02:09:58;;;;;;;7.32;5.65;;;9.70;53.80;;;;;;5038453;28;20129;-72
2022/03/05 02:12:30;;;;;;;9.13;6.03;;;9.70;53.80;;;;;;5054397;28;20417;-73
2022/03/05 02:14:56;;;;;;;8.15;5.68;;;9.70;53.80;;;;;;5054017;28;20445;-73
2022/03/05 02:17:21;;;;;;;8.13;5.95;;;9.60;53.80;;;;;;5054253;28;20041;-73
2022/03/05 02:19:48;;;;;;;7.78;5.88;;;9.60;53.90;;;;;;5054452;28;20052;-72
2022/03/05 02:22:13;;;;;;;9.30;6.40;;;9.60;53.90;;;;;;5054489;28;20519;-72
2022/03/05 02:24:40;;;;;;;9.13;6.40;;;9.60;53.90;;;;;;5054449;28;20049;-73
2022/03/05 02:27:07;;;;;;;10.13;6.55;;;9.60;53.80;;;;;;5054572;28;20123;-73
2022/03/05 02:29:36;;;;;;;9.05;6.53;;;9.60;53.60;;;;;;5053948;28;20513;-74
2022/03/05 02:32:03;;;;;;;8.45;6.25;;;9.60;53.70;;;;;;5056628;28;20082;-73
2022/03/05 02:34:30;;;;;;;6.90;5.85;;;9.50;53.50;;;;;;5074520;28;20052;-72
2022/03/05 02:36:55;;;;;;;6.72;5.30;;;9.50;53.60;;;;;;5075005;28;20048;-73
2022/03/05 02:39:24;;;;;;;8.70;6.05;;;9.50;54.10;;;;;;5078054;28;20064;-73
2022/03/05 02:41:51;;;;;;;8.45;5.72;;;9.60;53.80;;;;;;5077696;28;20048;-72
2022/03/05 02:44:17;;;;;;;8.23;5.95;;;9.60;53.50;;;;;;5078088;28;20390;-72
2022/03/05 02:46:42;;;;;;;8.05;5.68;;;9.60;53.60;;;;;;5078158;28;20056;-73
2022/03/05 02:49:08;;;;;;;8.48;5.78;;;9.60;53.70;;;;;;5076409;28;20044;-73
2022/03/05 02:51:34;;;;;;;8.38;5.93;;;9.70;53.80;;;;;;5077885;28;20114;-72
2022/03/05 02:54:00;;;;;;;7.65;5.75;;;9.80;53.30;;;;;;5077572;28;20079;-72
2022/03/05 02:56:26;;;;;;;7.35;5.13;;;9.80;53.10;;;;;;5077900;28;20052;-73
2022/03/05 02:58:51;;;;;;;7.18;5.60;;;9.70;53.20;;;;;;5077587;28;20044;-73
2022/03/05 03:01:17;;;;;;;6.40;5.30;;;9.60;53.10;;;;;;5077713;28;20063;-72
2022/03/05 03:03:43;;;;;;;10.60;5.90;;;9.60;53.20;;;;;;5055363;28;20421;-73
2022/03/05 03:06:09;;;;;;;9.30;5.20;;;9.50;53.30;;;;;;5057515;28;20096;-73
2022/03/05 03:08:35;;;;;;;7.90;5.30;;;9.50;53.40;;;;;;5057904;28;20452;-72
2022/03/05 03:11:00;;;;;;;6.00;4.55;;;9.50;53.60;;;;;;5057412;28;20045;-74
2022/03/05 03:13:26;;;;;;;9.38;5.82;;;9.50;53.70;;;;;;5057096;28;20583;-72
2022/03/05 03:15:52;;;;;;;8.15;5.38;;;9.50;53.40;;;;;;5057440;28;20179;-72
2022/03/05 03:18:18;;;;;;;7.80;4.97;;;9.50;53.20;;;;;;5057068;28;20131;-73
2022/03/05 03:20:44;;;;;;;7.22;4.95;;;9.50;53.30;;;;;;5039800;28;20044;-72
2022/03/05 03:23:10;;;;;;;6.15;4.63;;;9.40;53.70;;;;;;5057606;28;20452;-73
2022/03/05 03:25:39;;;;;;;6.75;4.75;;;9.40;53.50;;;;;;5057273;28;20045;-73
2022/03/05 03:28:08;;;;;;;8.38;5.22;;;9.40;53.60;;;;;;5057424;28;20095;-74
2022/03/05 03:30:34;;;;;;;6.95;5.30;;;9.40;53.10;;;;;;5056784;28;20132;-74
2022/03/05 03:33:00;;;;;;;6.43;4.65;;;9.30;53.50;;;;;;5049353;28;20053;-73
2022/03/05 03:35:27;;;;;;;7.28;5.05;;;9.30;53.70;;;;;;5077245;28;20048;-72
2022/03/05 03:37:53;;;;;;;6.32;4.43;;;9.20;53.60;;;;;;5076808;28;20424;-73
2022/03/05 03:40:20;;;;;;;7.85;5.35;;;9.20;53.80;;;;;;5077569;28;20400;-73
2022/03/05 03:42:49;;;;;;;6.35;4.40;;;9.20;53.70;;;;;;5076841;28;20341;-72
2022/03/05 03:45:16;;;;;;;6.82;4.78;;;9.30;53.80;;;;;;5076681;28;20418;-73
2022/03/05 03:47:44;;;;;;;6.05;4.20;;;9.30;53.40;;;;;;5076804;28;20127;-73
2022/03/05 03:50:12;;;;;;;6.80;4.70;;;9.30;53.50;;;;;;5058860;28;20055;-72
2022/03/05 03:52:37;;;;;;;7.78;4.72;;;9.40;53.40;;;;;;5075995;28;20384;-72
2022/03/05 03:55:05;;;;;;;7.20;5.07;;;9.30;53.10;;;;;;5076068;28;20041;-73
2022/03/05 03:57:31;;;;;;;7.57;4.88;;;9.30;53.40;;;;;;5055006;28;20088;-73
2022/03/05 03:59:56;;;;;;;6.30;4.50;;;9.20;53.50;;;;;;5056901;28;20080;-73
2022/03/05 04:02:23;;;;;;;5.88;4.13;;;9.20;53.60;;;;;;5055930;28;20395;-73
2022/03/05 04:04:49;;;;;;;6.72;4.25;;;9.10;53.60;;;;;;5039263;28;20367;-73
2022/03/05 04:09:59;;;;;;;6.78;4.25;;;9.20;53.50;;;;;;5056057;28;20048;-73
2022/03/05 04:12:25;;;;;;;7.13;4.63;;;9.20;53.40;;;;;;5056275;28;20041;-73
2022/03/05 04:14:50;;;;;;;8.48;4.30;;;9.20;53.40;;;;;;5056293;28;20084;-72
2022/03/05 04:17:16;;;;;;;5.45;4.00;;;9.30;53.50;;;;;;5056773;28;20037;-73
2022/03/05 04:19:43;;;;;;;6.32;5.05;;;9.30;53.30;;;;;;5056002;28;20124;-72
2022/03/05 04:22:08;;;;;;;5.80;3.92;;;9.30;53.00;;;;;;5056332;28;20432;-72
2022/03/05 04:24:34;;;;;;;7.32;5.03;;;9.30;52.90;;;;;;5055628;28;20087;-73
2022/03/05 04:27:00;;;;;;;5.95;4.70;;;9.30;53.00;;;;;;5056267;28;20045;-72
2022/03/05 04:29:26;;;;;;;5.70;4.32;;;9.30;53.30;;;;;;5056008;28;20394;-72
2022/03/05 04:31:52;;;;;;;7.00;4.35;;;9.30;53.30;;;;;;5055427;28;20040;-72
2022/03/05 04:34:18;;;;;;;5.88;4.40;;;9.40;53.20;;;;;;5055308;28;20041;-71
2022/03/05 04:36:45;;;;;;;6.45;4.50;;;9.30;53.00;;;;;;5055267;28;20333;-73
2022/03/05 04:39:11;;;;;;;7.78;5.10;;;9.30;53.00;;;;;;5055215;28;20440;-72
2022/03/05 04:41:37;;;;;;;6.70;5.03;;;9.30;52.80;;;;;;5055986;28;20063;-72
2022/03/05 04:44:03;;;;;;;9.02;4.95;;;9.30;52.90;;;;;;5055419;28;20414;-72
2022/03/05 04:46:29;;;;;;;5.55;4.43;;;9.30;53.10;;;;;;5055669;28;20134;-73
2022/03/05 04:48:54;;;;;;;6.07;4.80;;;9.20;53.10;;;;;;5055623;28;20049;-73
2022/03/05 04:51:20;;;;;;;7.93;4.75;;;9.20;53.20;;;;;;5055272;28;20490;-73
2022/03/05 04:53:46;;;;;;;6.93;5.25;;;9.30;53.10;;;;;;5055026;28;20045;-73
2022/03/05 04:56:12;;;;;;;7.63;4.93;;;9.30;52.90;;;;;;5055540;28;20059;-72
2022/03/05 04:58:37;;;;;;;7.70;4.82;;;9.30;52.80;;;;;;5055341;28;20053;-71
2022/03/05 05:01:03;;;;;;;6.47;4.53;;;9.40;52.90;;;;;;5055087;28;20087;-72
2022/03/05 05:03:29;;;;;;;8.73;4.78;;;9.30;53.10;;;;;;5073024;28;20044;-72
2022/03/05 05:05:56;;;;;;;7.40;4.88;;;9.40;52.90;;;;;;5075081;28;20064;-72
2022/03/05 05:08:22;;;;;;;7.80;5.20;;;9.30;52.70;;;;;;5074971;28;20044;-71
2022/03/05 05:10:48;;;;;;;6.45;5.10;;;9.20;52.60;;;;;;5057822;28;20056;-73
2022/03/05 05:13:13;;;;;;;6.30;4.25;;;9.20;53.00;;;;;;5057319;28;20060;-72
2022/03/05 05:15:39;;;;;;;6.75;4.60;;;9.10;53.00;;;;;;5075231;28;20277;-72
2022/03/05 05:18:05;;;;;;;6.78;4.85;;;9.20;53.00;;;;;;5075850;28;20062;-72
2022/03/05 05:20:31;;;;;;;5.90;4.70;;;9.20;52.90;;;;;;5057459;28;20052;-72
2022/03/05 05:22:57;;;;;;;8.80;5.03;;;9.10;52.80;;;;;;5074925;28;20048;-71
2022/03/05 05:25:22;;;;;;;7.55;5.00;;;9.00;52.80;;;;;;5074971;28;20371;-72
2022/03/05 05:27:48;;;;;;;7.28;4.85;;;9.00;53.00;;;;;;5075115;28;20118;-71
2022/03/05 05:30:14;;;;;;;7.05;4.45;;;9.10;53.20;;;;;;5075263;28;20333;-71
2022/03/05 05:32:40;;;;;;;7.22;5.10;;;9.10;53.00;;;;;;5053302;28;20122;-72
2022/03/05 05:35:07;;;;;;;7.30;5.18;;;9.20;52.90;;;;;;5060393;28;20048;-72
2022/03/05 05:37:34;;;;;;;10.05;4.70;;;9.20;52.80;;;;;;5074519;28;20103;-71
2022/03/05 05:39:59;;;;;;;7.07;5.47;;;9.30;53.50;;;;;;5066143;28;20360;-72
2022/03/05 05:42:25;;;;;;;9.77;6.45;;;9.50;51.50;;;;;;5037627;28;20128;-71
2022/03/05 05:44:51;;;;;;;10.10;6.30;;;9.60;49.20;;;;;;5054611;28;20103;-71
2022/03/05 05:47:17;;;;;;;7.80;6.10;;;9.70;48.00;;;;;;5054909;28;20048;-73
2022/03/05 05:49:42;;;;;;;8.68;6.38;;;9.70;47.30;;;;;;5050002;28;20040;-73
2022/03/05 05:52:08;;;;;;;9.30;6.45;;;9.70;47.30;;;;;;5054165;28;20341;-79
2022/03/05 05:54:34;;;;;;;12.00;6.60;;;9.60;47.90;;;;;;5056701;28;20348;-72
2022/03/05 05:57:00;;;;;;;10.10;6.25;;;9.70;48.30;;;;;;5044416;28;20128;-77
2022/03/05 05:59:25;;;;;;;6.47;4.82;;;9.80;48.60;;;;;;5087618;28;20044;-75
2022/03/05 06:01:51;;;;;;;6.35;5.18;;;9.90;48.60;;;;;;5074240;28;20116;-74
2022/03/05 06:04:17;;;;;;;7.10;4.60;;;10.10;48.70;;;;;;5074391;28;20067;-71
2022/03/05 06:06:43;;;;;;;7.40;4.18;;;10.30;48.80;;;;;;5073317;28;20178;-77
2022/03/05 06:09:09;;;;;;;6.47;3.80;;;10.60;48.80;;;;;;5036927;28;20063;-74
2022/03/05 06:11:34;;;;;;;6.25;3.58;;;10.90;48.90;;;;;;5057269;28;20186;-73
2022/03/05 06:14:00;;;;;;;5.80;3.80;;;10.90;49.40;;;;;;5072127;28;20056;-76
2022/03/05 06:16:26;;;;;;;5.15;3.40;;;11.30;49.40;;;;;;5089099;28;20079;-78
2022/03/05 06:18:52;;;;;;;9.07;5.32;;;11.60;49.50;;;;;;5077626;28;20044;-77
2022/03/05 06:21:17;;;;;;;6.70;3.13;;;11.80;48.30;;;;;;5072832;28;20098;-77
2022/03/05 06:23:43;;;;;;;5.82;3.20;;;11.90;49.90;;;;;;5056774;28;20048;-80
2022/03/05 06:26:09;;;;;;;7.45;3.78;;;12.20;50.40;;;;;;5042031;28;20076;-70
2022/03/05 06:28:35;;;;;;;9.02;3.13;;;12.00;50.70;;;;;;5055215;28;20048;-75
2022/03/05 06:31:04;;;;;;;5.75;2.83;;;12.30;50.20;;;;;;5073062;28;20036;-77
2022/03/05 06:33:29;;;;;;;6.15;3.28;;;12.50;50.30;;;;;;5057141;28;20111;-78
2022/03/05 06:35:55;;;;;;;9.93;3.60;;;12.80;49.70;;;;;;5075882;28;20028;-76
2022/03/05 06:38:21;;;;;;;6.88;3.42;;;13.00;49.70;;;;;;5076842;28;20059;-78
2022/03/05 06:40:47;;;;;;;10.43;3.90;;;13.20;49.60;;;;;;5058699;28;20386;-70
2022/03/05 06:43:15;;;;;;;7.15;3.25;;;13.30;49.60;;;;;;5068989;28;20049;-74
2022/03/05 06:45:41;;;;;;;5.63;2.72;;;13.50;49.70;;;;;;5057677;28;20053;-75
2022/03/05 06:48:07;;;;;;;5.63;3.00;;;13.60;49.80;;;;;;5057921;28;20060;-69
2022/03/05 06:50:33;;;;;;;5.50;3.33;;;13.70;50.30;;;;;;5046803;28;20137;-74
2022/03/05 06:52:59;;;;;;;6.13;3.00;;;13.90;49.80;;;;;;5057505;28;20084;-71
2022/03/05 06:55:25;;;;;;;7.43;2.90;;;14.00;49.70;;;;;;5056924;28;20033;-77
2022/03/05 06:57:52;;;;;;;7.50;3.00;;;13.90;50.40;;;;;;5070182;28;20470;-73
2022/03/05 07:00:18;;;;;;;5.15;2.75;;;14.00;50.50;;;;;;5075523;28;20059;-75
2022/03/05 07:02:44;;;;;;;6.25;2.67;;;14.10;50.50;;;;;;5064294;28;20460;-74
2022/03/05 07:05:10;;;;;;;9.52;2.85;;;14.30;50.90;;;;;;5056995;28;20055;-75
2022/03/05 07:07:36;;;;;;;6.57;2.55;;;14.40;51.30;;;;;;5067443;28;20071;-75
2022/03/05 07:10:04;;;;;;;7.80;2.75;;;14.50;51.80;;;;;;5061863;28;20045;-75
2022/03/05 07:12:30;;;;;;;6.10;2.60;;;14.50;52.20;;;;;;5055694;28;20060;-75
2022/03/05 07:14:58;;;;;;;7.38;2.65;;;14.70;52.50;;;;;;5056371;28;20045;-75
2022/03/05 07:17:25;;;;;;;9.70;2.25;;;14.70;52.60;;;;;;5068319;28;20044;-75
2022/03/05 07:19:51;;;;;;;8.93;2.17;;;14.80;52.60;;;;;;5096527;28;20088;-72
2022/03/05 07:22:17;;;;;;;10.10;2.70;;;14.90;52.70;;;;;;5090654;28;20045;-76
2022/03/05 07:24:42;;;;;;;10.80;2.58;;;15.00;52.60;;;;;;5076289;28;20040;-76
2022/03/05 07:27:08;;;;;;;9.73;2.67;;;15.00;52.70;;;;;;5075533;28;20048;-76
2022/03/05 07:29:34;;;;;;;7.22;2.30;;;15.10;52.80;;;;;;5060006;28;20045;-78
2022/03/05 07:32:03;;;;;;;7.45;2.40;;;15.10;52.70;;;;;;5074291;28;20044;-78
2022/03/05 07:34:30;;;;;;;6.70;2.22;;;15.20;52.60;;;;;;5077428;28;20040;-78
2022/03/05 07:36:55;;;;;;;9.48;2.15;;;15.20;52.60;;;;;;5076434;28;20053;-76
2022/03/05 07:39:21;;;;;;;11.85;1.98;;;15.30;52.50;;;;;;5073176;28;20178;-76
2022/03/05 07:41:48;;;;;;;7.38;1.90;;;15.40;52.60;;;;;;5068080;28;20072;-78
2022/03/05 07:44:13;;;;;;;9.23;2.17;;;15.40;52.30;;;;;;5074434;28;20052;-77
2022/03/05 07:46:42;;;;;;;8.18;2.17;;;15.50;52.40;;;;;;5074172;28;20050;-85
2022/03/05 07:49:08;;;;;;;9.18;1.85;;;15.40;52.40;;;;;;5040545;28;20367;-83
2022/03/05 07:51:37;;;;;;;7.25;1.85;;;15.60;52.50;;;;;;5053391;28;20044;-76
2022/03/05 07:54:04;;;;;;;6.82;1.58;;;15.70;52.50;;;;;;5053423;28;20356;-75
2022/03/05 07:56:30;;;;;;;9.10;2.10;;;15.70;52.40;;;;;;5056085;28;20059;-80
2022/03/05 07:58:56;;;;;;;7.57;2.55;;;15.80;52.40;;;;;;5055998;28;20132;-77
2022/03/05 08:01:22;;;;;;;9.30;2.50;;;15.80;51.80;;;;;;5022212;28;20111;-77
2022/03/05 08:03:47;;;;;;;7.63;1.58;;;15.80;50.80;;;;;;5056072;28;20459;-78
2022/03/05 08:06:13;;;;;;;6.97;2.00;;;15.90;50.80;;;;;;5038514;28;20056;-80
2022/03/05 08:08:39;;;;;;;8.45;1.95;;;16.00;50.90;;;;;;5038460;28;20048;-78
2022/03/05 08:11:07;;;;;;;8.82;2.05;;;16.00;51.00;;;;;;5056397;28;20114;-79
2022/03/05 08:13:35;;;;;;;5.93;2.13;;;16.00;51.00;;;;;;5056034;28;20049;-80
2022/03/05 08:16:00;;;;;;;5.97;2.10;;;16.10;51.20;;;;;;5038170;28;20045;-79
2022/03/05 08:18:26;;;;;;;6.50;2.10;;;16.10;50.80;;;;;;5037874;28;20120;-79
2022/03/05 08:20:52;;;;;;;6.68;2.47;;;16.10;50.30;;;;;;5067565;28;20048;-79
2022/03/05 08:23:18;;;;;;;6.93;1.95;;;16.10;50.50;;;;;;5069802;28;20054;-80
2022/03/05 08:25:43;;;;;;;10.68;2.75;;;16.20;50.60;;;;;;5053849;28;20050;-80
2022/03/05 08:28:09;;;;;;;6.25;2.30;;;16.20;50.40;;;;;;5075203;28;20115;-82
2022/03/05 08:30:35;;;;;;;12.77;2.33;;;16.30;50.30;;;;;;5058439;28;20051;-79
2022/03/05 08:33:03;;;;;;;7.25;1.70;;;16.30;50.50;;;;;;5075478;28;20086;-80
2022/03/05 08:35:29;;;;;;;9.27;2.50;;;16.30;50.50;;;;;;5057377;28;20047;-80
2022/03/05 08:37:55;;;;;;;7.80;2.35;;;16.30;50.40;;;;;;5040840;28;20052;-79
2022/03/05 08:40:21;;;;;;;7.68;2.72;;;16.40;50.30;;;;;;5069295;28;20045;-79
2022/03/05 08:42:53;;;;;;;7.43;2.65;;;16.40;50.10;;;;;;5050083;28;20068;-80
2022/03/05 08:45:19;;;;;;;13.13;2.78;;;16.40;49.70;;;;;;5057218;28;20159;-77
2022/03/05 08:47:47;;;;;;;7.18;2.08;;;16.40;49.60;;;;;;5074005;28;20119;-84
2022/03/05 08:50:13;;;;;;;8.40;2.13;;;16.50;49.30;;;;;;5074749;28;20340;-77
2022/03/05 08:52:39;;;;;;;11.35;2.42;;;16.50;49.40;;;;;;5042135;28;20040;-76
2022/03/05 08:55:08;;;;;;;13.07;2.83;;;16.60;49.60;;;;;;5063714;28;20059;-73
2022/03/05 08:57:34;;;;;;;11.57;2.63;;;16.60;50.00;;;;;;5071011;28;20045;-78
2022/03/05 09:00:00;;;;;;;7.63;3.45;;;16.60;49.60;;;;;;5077717;28;20363;-78
2022/03/05 09:02:26;;;;;;;8.30;2.22;;;16.60;49.40;;;;;;5067781;28;20380;-77
2022/03/05 09:04:52;;;;;;;11.75;3.38;;;16.70;49.60;;;;;;5055752;28;20048;-77
2022/03/05 09:07:18;;;;;;;9.60;2.47;;;16.70;49.40;;;;;;5055415;28;20409;-77
2022/03/05 09:09:44;;;;;;;8.77;2.60;;;16.80;49.50;;;;;;5037696;28;20040;-78
2022/03/05 09:12:10;;;;;;;7.65;2.75;;;16.80;49.80;;;;;;5036771;28;20084;-79
2022/03/05 09:14:36;;;;;;;11.20;2.20;;;16.70;50.10;;;;;;5020207;28;20061;-76
2022/03/05 09:17:02;;;;;;;14.10;3.00;;;16.80;50.10;;;;;;5071391;28;20060;-81
2022/03/05 09:19:27;;;;;;;9.90;2.92;;;16.80;50.10;;;;;;5041127;28;20103;-79
2022/03/05 09:21:53;;;;;;;6.72;2.40;;;16.90;50.20;;;;;;5075446;28;20048;-78
2022/03/05 09:24:19;;;;;;;10.38;2.80;;;16.90;50.10;;;;;;5057595;28;20079;-76
2022/03/05 09:26:45;;;;;;;14.13;2.63;;;16.90;50.30;;;;;;5075099;28;20355;-77
2022/03/05 09:29:10;;;;;;;8.80;2.45;;;16.90;50.40;;;;;;5074036;28;20048;-78
2022/03/05 09:31:36;;;;;;;9.38;2.95;;;16.90;50.30;;;;;;5059788;28;20514;-80
2022/03/05 09:34:02;;;;;;;7.78;2.42;;;16.90;50.30;;;;;;5021961;28;20052;-73
2022/03/05 09:36:28;;;;;;;11.57;3.05;;;17.00;50.30;;;;;;5077193;28;20040;-76
2022/03/05 09:38:54;;;;;;;9.73;2.70;;;17.00;50.50;;;;;;5088437;28;20214;-76
2022/03/05 09:41:19;;;;;;;8.43;2.50;;;17.00;50.50;;;;;;5074677;28;20044;-76
2022/03/05 09:43:45;;;;;;;7.70;2.67;;;17.00;50.80;;;;;;5071618;28;20033;-76
2022/03/05 09:46:11;;;;;;;8.63;3.25;;;17.00;50.90;;;;;;5075797;28;20456;-75
2022/03/05 09:48:39;;;;;;;8.88;2.95;;;16.90;51.00;;;;;;5079127;28;20075;-79
2022/03/05 09:51:04;;;;;;;14.65;3.53;;;16.90;51.10;;;;;;5078867;28;20375;-77
2022/03/05 09:53:31;;;;;;;10.55;2.88;;;16.90;51.40;;;;;;5078988;28;20045;-74
2022/03/05 09:55:58;;;;;;;12.77;2.80;;;16.80;51.50;;;;;;5079615;28;20418;-76
2022/03/05 09:58:23;;;;;;;14.30;3.10;;;16.80;51.70;;;;;;5079189;28;20048;-76
2022/03/05 10:00:50;;;;;;;9.88;2.97;;;16.80;52.10;;;;;;5078589;28;20106;-75
2022/03/05 10:03:17;;;;;;;15.18;3.45;;;16.70;52.50;;;;;;5078555;28;20053;-76
2022/03/05 10:05:42;;;;;;;7.43;2.80;;;16.60;52.80;;;;;;5078858;28;20087;-76
2022/03/05 10:08:12;;;;;;;9.50;3.17;;;16.60;53.30;;;;;;5077880;28;20497;-75
2022/03/05 10:10:53;;;;;;;8.38;3.10;;;16.50;53.50;;;;;;5060974;28;20083;-73
2022/03/05 10:13:32;;;;;;;8.73;3.45;;;16.50;53.40;;;;;;5078135;28;20083;-74
2022/03/05 10:16:03;;;;;;;17.60;3.45;;;16.30;54.40;;;;;;5060849;28;20375;-75
2022/03/05 10:18:34;;;;;;;17.23;3.47;;;16.30;54.10;;;;;;5078341;28;20102;-74
2022/03/05 10:21:06;;;;;;;11.55;3.65;;;16.30;54.00;;;;;;5078388;28;20475;-75
2022/03/05 10:23:36;;;;;;;15.48;3.97;;;16.30;53.50;;;;;;5077750;28;20045;-75
2022/03/05 10:26:05;;;;;;;13.45;4.00;;;16.30;53.40;;;;;;5078105;28;20052;-75
2022/03/05 10:28:31;;;;;;;16.60;4.65;;;16.30;53.20;;;;;;5078241;28;20048;-74
2022/03/05 10:31:07;;;;;;;24.70;4.50;;;16.20;53.30;;;;;;5060455;28;20344;-75
2022/03/05 10:33:45;;;;;;;23.50;5.00;;;16.20;52.70;;;;;;5077845;28;20075;-75
2022/03/05 10:36:18;;;;;;;20.73;4.88;;;16.20;52.60;;;;;;5074442;28;20044;-76
2022/03/05 10:38:51;;;;;;;18.67;4.22;;;16.30;52.80;;;;;;5085512;28;20059;-75
2022/03/05 10:41:19;;;;;;;13.55;3.67;;;16.40;52.80;;;;;;5098318;28;20048;-76
2022/03/05 10:43:47;;;;;;;14.75;4.18;;;16.30;52.70;;;;;;5081253;28;20044;-77
2022/03/05 10:46:13;;;;;;;13.75;4.43;;;16.30;52.70;;;;;;5054504;28;20080;-77
2022/03/05 10:48:42;;;;;;;16.65;5.68;;;16.30;53.00;;;;;;5064856;28;20123;-79
2022/03/05 10:51:18;;;;;;;12.20;5.43;;;16.20;53.60;;;;;;5077472;28;20048;-79
2022/03/05 10:53:47;;;;;;;10.20;5.85;;;16.20;52.40;;;;;;5077442;28;20083;-79
2022/03/05 10:56:33;;;;;;;15.10;5.65;;;16.20;52.00;;;;;;5056439;28;20107;-80
2022/03/05 10:59:22;;;;;;;13.68;5.13;;;16.10;51.50;;;;;;5056493;28;20055;-79
2022/03/05 11:01:48;;;;;;;12.32;5.18;;;16.10;51.40;;;;;;5040110;28;20052;-78
2022/03/05 11:04:14;;;;;;;14.43;5.43;;;16.00;52.10;;;;;;5056876;28;20055;-78
2022/03/05 11:06:43;;;;;;;11.40;4.80;;;16.00;52.20;;;;;;5036748;28;20361;-79
2022/03/05 11:09:13;;;;;;;12.32;5.18;;;16.00;52.20;;;;;;5057240;28;20159;-77
2022/03/05 11:11:41;;;;;;;9.52;4.45;;;15.90;52.20;;;;;;5040186;28;20045;-79
2022/03/05 11:14:11;;;;;;;10.60;4.05;;;15.90;52.40;;;;;;5057261;28;20127;-79
2022/03/05 11:16:37;;;;;;;26.13;4.53;;;15.80;52.50;;;;;;5057512;28;20049;-78
2022/03/05 11:19:03;;;;;;;10.45;4.65;;;15.80;52.60;;;;;;5039300;28;20202;-81
2022/03/05 11:21:29;;;;;;;11.50;4.28;;;15.80;52.80;;;;;;5056898;28;20044;-80
2022/03/05 11:23:57;;;;;;;8.32;4.20;;;15.70;52.90;;;;;;5057287;28;20128;-77
2022/03/05 11:26:24;;;;;;;12.07;4.25;;;15.70;53.00;;;;;;5057209;28;20122;-79
2022/03/05 11:28:51;;;;;;;12.27;4.47;;;15.60;53.10;;;;;;5039211;28;20049;-79
2022/03/05 11:31:20;;;;;;;7.28;3.63;;;15.60;53.30;;;;;;5070280;28;20414;-80
2022/03/05 11:33:47;;;;;;;8.68;3.70;;;15.60;53.40;;;;;;5079382;28;20048;-79
2022/03/05 11:36:36;;;;;;;8.05;4.18;;;15.60;53.40;;;;;;5091028;28;20345;-78
2022/03/05 11:39:12;;;;;;;6.85;3.95;;;15.50;53.40;;;;;;5059748;28;20086;-79
2022/03/05 11:41:51;;;;;;;7.10;4.57;;;15.50;53.40;;;;;;5079667;28;20070;-79
2022/03/05 11:44:18;;;;;;;13.88;4.00;;;15.50;53.30;;;;;;5056929;28;20475;-79
2022/03/05 11:46:44;;;;;;;7.55;3.90;;;15.40;52.90;;;;;;5039798;28;20131;-79
2022/03/05 11:49:12;;;;;;;10.52;3.53;;;15.40;52.40;;;;;;5056453;28;20049;-78
2022/03/05 11:51:54;;;;;;;7.18;3.80;;;15.40;52.00;;;;;;5039208;28;20452;-79
2022/03/05 11:54:21;;;;;;;6.25;3.47;;;15.40;51.50;;;;;;5044454;28;20096;-78
2022/03/05 11:57:13;;;;;;;9.35;4.15;;;15.40;51.80;;;;;;5096974;28;20048;-80
2022/03/05 11:59:51;;;;;;;7.97;3.95;;;15.40;51.40;;;;;;5078935;28;20471;-78
2022/03/05 12:02:38;;;;;;;8.98;3.90;;;15.30;51.50;;;;;;5096541;28;20093;-80
2022/03/05 12:05:04;;;;;;;7.13;3.22;;;15.30;51.30;;;;;;5096734;28;20089;-77
2022/03/05 12:07:40;;;;;;;7.07;3.60;;;15.30;51.40;;;;;;5096602;28;20106;-80
2022/03/05 12:10:13;;;;;;;7.53;3.22;;;15.30;51.40;;;;;;5093781;28;20135;-78
2022/03/05 12:12:56;;;;;;;4.32;2.88;;;15.30;51.40;;;;;;5078703;28;20114;-79
2022/03/05 12:15:33;;;;;;;6.82;3.63;;;15.30;51.40;;;;;;5093347;28;20048;-79
2022/03/05 12:18:02;;;;;;;6.28;3.30;;;15.30;51.60;;;;;;5096248;28;20082;-78
2022/03/05 12:20:34;;;;;;;7.10;3.88;;;15.20;51.60;;;;;;5096172;28;20056;-77
2022/03/05 12:23:05;;;;;;;7.20;3.70;;;15.20;51.70;;;;;;5096412;28;20048;-79
2022/03/05 12:25:38;;;;;;;6.20;3.25;;;15.20;52.00;;;;;;5096431;28;20070;-82
2022/03/05 12:28:10;;;;;;;6.93;3.47;;;15.20;52.10;;;;;;5096163;28;20051;-78
2022/03/05 12:30:37;;;;;;;5.97;3.50;;;15.20;52.20;;;;;;5078357;28;20131;-79
2022/03/05 12:33:07;;;;;;;5.40;3.10;;;15.10;52.00;;;;;;5075873;28;20045;-81
2022/03/05 12:35:33;;;;;;;4.85;3.10;;;15.10;51.90;;;;;;5058146;28;20052;-77
2022/03/05 12:37:59;;;;;;;7.28;3.45;;;15.10;51.80;;;;;;5052653;28;20053;-79
2022/03/05 12:40:27;;;;;;;6.18;3.30;;;15.10;51.80;;;;;;5095521;28;20143;-78
2022/03/05 12:42:54;;;;;;;4.70;3.28;;;15.10;51.90;;;;;;5087703;28;20037;-77
2022/03/05 12:45:26;;;;;;;5.78;3.20;;;15.10;51.90;;;;;;5058068;28;20482;-79
2022/03/05 12:48:00;;;;;;;5.68;3.13;;;15.10;51.80;;;;;;5075341;28;20059;-80
2022/03/05 12:50:37;;;;;;;5.63;3.17;;;15.00;51.80;;;;;;5076210;28;20187;-78